createdAt,value
2019-02-10T00:01:54.182Z,2.77
2019-02-10T00:07:00.005Z,2.27
2019-02-10T00:12:07.306Z,2.57
2019-02-10T00:17:12.866Z,3.17
2019-02-10T00:22:20.132Z,2.90
2019-02-10T00:27:26.305Z,2.53
2019-02-10T00:32:33.863Z,2.80
2019-02-10T00:37:41.832Z,2.97
2019-02-10T00:42:48.932Z,3.43
2019-02-10T00:47:54.790Z,2.80
2019-02-10T00:53:01.422Z,3.10
2019-02-10T00:58:06.967Z,2.47
2019-02-10T01:03:12.851Z,2.73
2019-02-10T01:08:19.769Z,2.80
2019-02-10T01:13:25.730Z,3.07
2019-02-10T01:18:32.529Z,2.57
2019-02-10T01:23:38.724Z,3.20
2019-02-10T01:28:44.512Z,3.17
2019-02-10T01:33:49.380Z,3.47
2019-02-10T01:38:55.512Z,3.30
2019-02-10T01:44:01.166Z,3.60
2019-02-10T01:49:07.612Z,2.93
2019-02-10T01:54:13.403Z,2.97
2019-02-10T01:59:18.580Z,3.07
2019-02-10T02:04:25.758Z,3.20
2019-02-10T02:09:31.698Z,2.90
2019-02-10T02:14:38.137Z,2.80
2019-02-10T02:19:44.919Z,3.20
2019-02-10T02:24:50.541Z,3.40
2019-02-10T02:29:56.548Z,3.20
2019-02-10T02:35:04.554Z,2.83
2019-02-10T02:40:11.672Z,2.60
2019-02-10T02:45:16.409Z,2.77
2019-02-10T02:50:22.961Z,3.10
2019-02-10T02:55:28.930Z,3.40
2019-02-10T03:00:35.413Z,3.30
2019-02-10T03:05:41.225Z,3.03
2019-02-10T03:10:48.645Z,2.97
2019-02-10T03:15:56.815Z,2.83
2019-02-10T03:21:03.739Z,3.23
2019-02-10T03:26:10.135Z,3.60
2019-02-10T03:31:15.376Z,2.13
2019-02-10T03:36:21.413Z,2.80
2019-02-10T03:41:28.151Z,2.67
2019-02-10T03:46:34.512Z,2.63
2019-02-10T03:51:41.425Z,3.07
2019-02-10T03:56:46.806Z,2.37
2019-02-10T04:01:56.285Z,2.37
2019-02-10T04:07:01.493Z,2.27
2019-02-10T04:12:07.248Z,2.27
2019-02-10T04:17:14.393Z,2.40
2019-02-10T04:22:22.893Z,2.87
2019-02-10T04:27:30.378Z,2.20
2019-02-10T04:32:37.357Z,2.20
2019-02-10T04:37:46.114Z,2.37
2019-02-10T04:42:50.512Z,2.03
2019-02-10T04:47:58.592Z,1.93
2019-02-10T04:53:06.243Z,1.70
2019-02-10T04:58:11.461Z,2.00
2019-02-10T05:03:19.773Z,1.60
2019-02-10T05:08:27.390Z,1.40
2019-02-10T05:13:35.702Z,1.53
2019-02-10T05:18:42.010Z,1.60
2019-02-10T05:23:48.668Z,1.60
2019-02-10T05:28:54.760Z,1.77
2019-02-10T05:34:01.990Z,1.57
2019-02-10T05:39:08.535Z,1.90
2019-02-10T05:44:15.236Z,1.27
2019-02-10T05:49:20.785Z,1.20
2019-02-10T05:54:28.145Z,1.30
2019-02-10T05:59:34.072Z,1.37
2019-02-10T06:04:44.424Z,1.23
2019-02-10T06:09:51.182Z,1.43
2019-02-10T06:14:57.330Z,1.50
2019-02-10T06:20:02.962Z,1.03
2019-02-10T06:25:09.960Z,1.67
2019-02-10T06:30:16.312Z,1.43
2019-02-10T06:35:22.018Z,1.00
2019-02-10T06:40:28.158Z,1.23
2019-02-10T06:45:35.032Z,1.40
2019-02-10T06:50:40.681Z,1.30
2019-02-10T06:55:47.486Z,1.00
2019-02-10T07:01:03.981Z,1.00
2019-02-10T07:06:09.992Z,0.97
2019-02-10T07:11:16.475Z,1.10
2019-02-10T07:16:43.569Z,1.27
2019-02-10T07:21:50.925Z,1.00
2019-02-10T07:27:00.981Z,1.10
2019-02-10T07:32:23.565Z,1.10
2019-02-10T07:37:49.841Z,0.90
2019-02-10T07:43:50.812Z,1.10
2019-02-10T07:49:07.786Z,0.97
2019-02-10T07:54:42.331Z,0.83
2019-02-10T07:59:55.134Z,0.80
2019-02-10T08:05:38.602Z,0.90
2019-02-10T08:11:32.376Z,0.90
2019-02-10T08:16:55.077Z,1.00
2019-02-10T08:22:32.288Z,0.87
2019-02-10T08:28:19.900Z,1.20
2019-02-10T08:33:52.859Z,0.73
2019-02-10T08:39:12.583Z,0.67
2019-02-10T08:44:37.697Z,0.60
2019-02-10T08:50:38.275Z,0.60
2019-02-10T08:55:43.834Z,0.70
2019-02-10T09:00:49.004Z,0.70
2019-02-10T09:06:06.942Z,0.70
2019-02-10T09:11:15.506Z,1.00
2019-02-10T09:16:24.963Z,0.93
2019-02-10T09:21:32.530Z,0.87
2019-02-10T09:26:39.426Z,0.60
2019-02-10T09:31:46.126Z,0.57
2019-02-10T09:36:55.534Z,0.50
2019-02-10T09:42:01.871Z,0.80
2019-02-10T09:47:10.198Z,0.83
2019-02-10T09:52:18.379Z,0.87
2019-02-10T09:57:28.924Z,0.90
2019-02-10T10:03:08.661Z,0.80
2019-02-10T10:09:03.062Z,0.60
2019-02-10T10:14:08.040Z,0.60
2019-02-10T10:19:14.434Z,0.57
2019-02-10T10:24:20.090Z,0.60
2019-02-10T10:29:29.438Z,0.60
2019-02-10T10:34:44.973Z,0.60
2019-02-10T10:39:51.781Z,0.70
2019-02-10T10:44:57.456Z,0.80
2019-02-10T10:50:05.024Z,0.70
2019-02-10T10:55:12.670Z,0.60
2019-02-10T11:00:20.121Z,0.60
2019-02-10T11:05:25.885Z,0.50
2019-02-10T11:10:31.990Z,0.70
2019-02-10T11:15:37.412Z,0.60
2019-02-10T11:20:43.729Z,0.60
2019-02-10T11:25:49.937Z,0.57
2019-02-10T11:30:56.048Z,0.70
2019-02-10T11:36:01.702Z,0.83
2019-02-10T11:41:07.679Z,0.70
2019-02-10T11:46:16.417Z,0.80
2019-02-10T11:51:23.296Z,0.80
2019-02-10T11:56:29.983Z,0.80
2019-02-10T12:01:35.832Z,0.70
2019-02-10T12:06:44.409Z,0.70
2019-02-10T12:11:52.667Z,0.60
2019-02-10T12:16:58.173Z,0.60
2019-02-10T12:22:03.281Z,0.80
2019-02-10T12:27:09.958Z,0.70
2019-02-10T12:32:18.945Z,0.77
2019-02-10T12:49:38.396Z,0.90
2019-02-10T12:54:45.111Z,0.77
2019-02-10T12:59:50.630Z,1.10
2019-02-10T13:04:57.197Z,1.17
2019-02-10T13:10:08.317Z,1.07
2019-02-10T13:15:12.706Z,1.00
2019-02-10T13:20:19.836Z,1.33
2019-02-10T13:25:26.166Z,1.27
2019-02-10T13:30:33.681Z,1.47
2019-02-10T13:35:38.752Z,1.60
2019-02-10T13:40:44.817Z,1.03
2019-02-10T13:46:07.056Z,1.20
2019-02-10T13:51:13.237Z,1.20
2019-02-10T13:56:20.102Z,1.23
2019-02-10T14:01:29.443Z,1.17
2019-02-10T14:06:36.466Z,1.23
2019-02-10T14:11:44.005Z,1.20
2019-02-10T14:16:51.977Z,1.47
2019-02-10T14:21:59.308Z,1.30
2019-02-10T14:27:06.076Z,1.20
2019-02-10T14:32:13.171Z,1.00
2019-02-10T14:37:20.438Z,1.10
2019-02-10T14:42:29.022Z,1.03
2019-02-10T14:47:44.355Z,1.47
2019-02-10T14:53:14.087Z,1.37
2019-02-10T14:59:28.040Z,1.43
2019-02-10T15:04:35.724Z,1.33
2019-02-10T15:09:44.050Z,1.70
2019-02-10T15:14:50.673Z,1.20
2019-02-10T15:19:59.978Z,1.10
2019-02-10T15:25:10.315Z,1.13
2019-02-10T15:31:01.438Z,0.80
2019-02-10T15:36:46.651Z,0.60
2019-02-10T15:41:53.905Z,0.50
2019-02-10T15:46:59.205Z,0.60
2019-02-10T15:52:04.781Z,0.67
2019-02-10T16:03:14.930Z,0.70
2019-02-10T16:08:22.657Z,0.70
2019-02-10T16:13:30.342Z,0.80
2019-02-10T16:18:36.794Z,1.10
2019-02-10T16:23:43.939Z,1.30
2019-02-10T16:28:51.953Z,1.60
2019-02-10T16:33:59.967Z,1.60
2019-02-10T16:39:11.861Z,1.70
2019-02-10T16:44:18.673Z,1.63
2019-02-10T16:49:25.422Z,1.60
2019-02-10T16:54:32.356Z,1.60
2019-02-10T16:59:39.048Z,1.30
2019-02-10T17:04:45.868Z,1.00
2019-02-10T17:09:53.205Z,1.00
2019-02-10T17:14:59.345Z,1.00
2019-02-10T17:20:05.769Z,1.20
2019-02-10T17:25:13.613Z,1.60
2019-02-10T17:30:22.970Z,1.50
2019-02-10T17:35:28.767Z,1.40
2019-02-10T17:40:37.211Z,1.60
2019-02-10T17:45:42.448Z,1.50
2019-02-10T17:50:49.970Z,1.73
2019-02-10T17:55:55.117Z,1.97
2019-02-10T18:00:59.902Z,2.10
2019-02-10T18:06:04.803Z,1.00
2019-02-10T18:11:11.905Z,1.00
2019-02-10T18:16:45.382Z,0.80
2019-02-10T18:22:08.934Z,0.90
2019-02-10T18:27:31.293Z,1.10
2019-02-10T18:32:54.227Z,1.20
2019-02-10T18:38:13.489Z,1.20
2019-02-10T18:43:48.008Z,1.27
2019-02-10T18:49:12.721Z,1.37
2019-02-10T18:54:25.878Z,1.60
2019-02-10T19:00:08.414Z,2.00
2019-02-10T19:05:21.862Z,2.30
2019-02-10T19:10:57.507Z,1.43
2019-02-10T19:16:20.084Z,1.20
2019-02-10T19:21:57.399Z,1.53
2019-02-10T19:27:10.634Z,1.40
2019-02-10T19:32:35.635Z,0.97
2019-02-10T19:38:00.768Z,1.10
2019-02-10T19:43:26.085Z,1.00
2019-02-10T19:48:40.260Z,1.13
2019-02-10T19:54:19.733Z,1.60
2019-02-10T20:00:02.543Z,1.70
2019-02-10T20:05:29.729Z,2.10
2019-02-10T20:10:48.701Z,2.20
2019-02-10T20:16:19.642Z,2.10
2019-02-10T20:21:58.526Z,2.87
2019-02-10T20:27:21.799Z,3.10
2019-02-10T20:32:42.292Z,3.10
2019-02-10T20:37:57.088Z,2.93
2019-02-10T20:43:12.432Z,2.70
2019-02-10T20:48:41.160Z,3.43
2019-02-10T20:54:01.568Z,2.50
2019-02-10T20:59:15.678Z,2.80
2019-02-10T21:04:39.739Z,2.27
2019-02-10T21:10:03.628Z,2.33
2019-02-10T21:15:23.526Z,2.40
2019-02-10T21:20:54.481Z,2.37
2019-02-10T21:26:18.318Z,2.63
2019-02-10T21:31:44.461Z,2.37
2019-02-10T21:37:02.023Z,2.00
2019-02-10T21:42:28.785Z,1.20
2019-02-10T21:47:49.875Z,1.33
2019-02-10T21:52:58.004Z,1.50
2019-02-10T21:58:03.683Z,1.57
2019-02-10T22:03:10.708Z,1.20
2019-02-10T22:08:17.291Z,0.97
2019-02-10T22:13:24.328Z,1.07
2019-02-10T22:18:53.325Z,0.53
2019-02-10T22:24:01.055Z,0.30
2019-02-10T22:29:07.833Z,0.43
2019-02-10T22:34:13.498Z,0.50
2019-02-10T22:39:20.302Z,0.57
2019-02-10T22:44:28.340Z,1.30
2019-02-10T22:49:35.624Z,1.27
2019-02-10T22:55:14.747Z,1.90
2019-02-10T23:00:46.283Z,1.50
2019-02-10T23:05:51.440Z,1.00
2019-02-10T23:10:57.885Z,1.33
2019-02-10T23:16:03.459Z,1.63
2019-02-10T23:21:11.046Z,1.90
2019-02-10T23:26:17.650Z,2.27
2019-02-10T23:31:24.032Z,2.00
2019-02-10T23:36:31.317Z,2.13
2019-02-10T23:41:36.828Z,2.23
2019-02-10T23:46:43.063Z,1.93
2019-02-10T23:51:50.303Z,1.80
2019-02-10T23:56:57.765Z,1.50
